sensor_id;sensor_type;location;lat;lon;timestamp;pressure;altitude;pressure_sealevel;temperature;humidity
45357;BME280;31092;51.924;21.448;2022-08-01T00:00:22;99867.78;;;14.45;100.00
45357;BME280;31092;51.924;21.448;2022-08-01T00:02:47;99887.03;;;14.57;100.00
45357;BME280;31092;51.924;21.448;2022-08-01T00:05:13;99860.47;;;14.46;100.00
45357;BME280;31092;51.924;21.448;2022-08-01T00:07:39;99875.53;;;14.55;100.00
45357;BME280;31092;51.924;21.448;2022-08-01T00:10:08;99819.69;;;14.19;100.00
45357;BME280;31092;51.924;21.448;2022-08-01T00:12:34;99805.25;;;14.12;100.00
45357;BME280;31092;51.924;21.448;2022-08-01T00:15:01;99868.03;;;14.50;100.00
45357;BME280;31092;51.924;21.448;2022-08-01T00:17:27;99871.56;;;14.51;100.00
45357;BME280;31092;51.924;21.448;2022-08-01T00:19:53;99849.81;;;14.44;100.00
45357;BME280;31092;51.924;21.448;2022-08-01T00:22:18;99805.25;;;14.12;100.00
45357;BME280;31092;51.924;21.448;2022-08-01T00:24:44;99878.69;;;14.58;100.00
45357;BME280;31092;51.924;21.448;2022-08-01T00:27:09;99794.44;;;14.12;100.00
45357;BME280;31092;51.924;21.448;2022-08-01T00:29:35;99856.72;;;14.47;100.00
45357;BME280;31092;51.924;21.448;2022-08-01T00:32:00;99864.69;;;14.55;100.00
45357;BME280;31092;51.924;21.448;2022-08-01T00:34:26;99864.84;;;14.47;100.00
45357;BME280;31092;51.924;21.448;2022-08-01T00:36:52;99866.94;;;14.45;100.00
45357;BME280;31092;51.924;21.448;2022-08-01T00:39:36;99868.47;;;14.54;100.00
45357;BME280;31092;51.924;21.448;2022-08-01T00:42:11;99875.75;;;14.53;100.00
45357;BME280;31092;51.924;21.448;2022-08-01T00:44:38;99794.19;;;14.07;100.00
45357;BME280;31092;51.924;21.448;2022-08-01T00:47:04;99871.56;;;14.51;100.00
45357;BME280;31092;51.924;21.448;2022-08-01T00:49:30;99834.94;;;14.27;100.00
45357;BME280;31092;51.924;21.448;2022-08-01T00:51:56;99871.09;;;14.47;100.00
45357;BME280;31092;51.924;21.448;2022-08-01T00:54:24;99786.69;;;14.02;100.00
45357;BME280;31092;51.924;21.448;2022-08-01T00:56:50;99876.19;;;14.57;100.00
45357;BME280;31092;51.924;21.448;2022-08-01T00:59:17;99863.44;;;14.51;100.00
45357;BME280;31092;51.924;21.448;2022-08-01T01:01:49;99853.19;;;14.46;100.00
45357;BME280;31092;51.924;21.448;2022-08-01T01:04:16;99822.03;;;14.29;100.00
45357;BME280;31092;51.924;21.448;2022-08-01T01:09:58;99872.88;;;14.61;100.00
45357;BME280;31092;51.924;21.448;2022-08-01T01:15:18;99800.28;;;14.16;100.00
45357;BME280;31092;51.924;21.448;2022-08-01T01:20:21;99865.13;;;14.58;100.00
45357;BME280;31092;51.924;21.448;2022-08-01T01:25:41;99860.59;;;14.59;100.00
45357;BME280;31092;51.924;21.448;2022-08-01T01:31:08;99805.34;;;14.25;100.00
45357;BME280;31092;51.924;21.448;2022-08-01T01:33:37;99860.97;;;14.56;100.00
45357;BME280;31092;51.924;21.448;2022-08-01T01:36:06;99870.81;;;14.64;100.00
45357;BME280;31092;51.924;21.448;2022-08-01T01:38:37;99857.00;;;14.58;100.00
45357;BME280;31092;51.924;21.448;2022-08-01T01:41:08;99864.13;;;14.59;100.00
45357;BME280;31092;51.924;21.448;2022-08-01T01:43:36;99867.69;;;14.67;100.00
45357;BME280;31092;51.924;21.448;2022-08-01T01:46:03;99859.31;;;14.61;100.00
45357;BME280;31092;51.924;21.448;2022-08-01T01:48:30;99866.03;;;14.66;100.00
45357;BME280;31092;51.924;21.448;2022-08-01T01:50:59;99878.09;;;14.63;100.00
45357;BME280;31092;51.924;21.448;2022-08-01T01:53:27;99812.66;;;14.31;100.00
45357;BME280;31092;51.924;21.448;2022-08-01T01:55:57;99824.34;;;14.32;100.00
45357;BME280;31092;51.924;21.448;2022-08-01T01:58:24;99867.66;;;14.60;100.00
45357;BME280;31092;51.924;21.448;2022-08-01T02:00:55;99852.19;;;14.54;100.00
45357;BME280;31092;51.924;21.448;2022-08-01T02:03:22;99868.50;;;14.60;100.00
45357;BME280;31092;51.924;21.448;2022-08-01T02:05:51;99859.72;;;14.58;100.00
45357;BME280;31092;51.924;21.448;2022-08-01T02:08:18;99855.97;;;14.53;100.00
45357;BME280;31092;51.924;21.448;2022-08-01T02:10:45;99801.13;;;14.16;100.00
45357;BME280;31092;51.924;21.448;2022-08-01T02:13:33;99802.81;;;14.17;100.00
45357;BME280;31092;51.924;21.448;2022-08-01T02:16:05;99805.91;;;14.14;100.00
45357;BME280;31092;51.924;21.448;2022-08-01T02:18:32;99862.97;;;14.47;100.00
45357;BME280;31092;51.924;21.448;2022-08-01T02:20:59;99863.63;;;14.49;100.00
45357;BME280;31092;51.924;21.448;2022-08-01T02:23:30;99882.06;;;14.60;100.00
45357;BME280;31092;51.924;21.448;2022-08-01T02:25:58;99883.09;;;14.59;100.00
45357;BME280;31092;51.924;21.448;2022-08-01T02:28:30;99867.84;;;14.52;100.00
45357;BME280;31092;51.924;21.448;2022-08-01T02:31:02;99859.63;;;14.45;100.00
45357;BME280;31092;51.924;21.448;2022-08-01T02:33:41;99878.91;;;14.57;100.00
45357;BME280;31092;51.924;21.448;2022-08-01T02:36:08;99879.94;;;14.56;100.00
45357;BME280;31092;51.924;21.448;2022-08-01T02:38:39;99882.00;;;14.54;100.00
45357;BME280;31092;51.924;21.448;2022-08-01T02:41:08;99869.44;;;14.46;100.00
45357;BME280;31092;51.924;21.448;2022-08-01T02:43:37;99860.22;;;14.41;100.00
45357;BME280;31092;51.924;21.448;2022-08-01T02:46:06;99883.06;;;14.53;100.00
45357;BME280;31092;51.924;21.448;2022-08-01T02:48:35;99881.81;;;14.55;100.00
45357;BME280;31092;51.924;21.448;2022-08-01T02:51:02;99896.66;;;14.59;100.00
45357;BME280;31092;51.924;21.448;2022-08-01T02:53:31;99882.84;;;14.54;100.00
45357;BME280;31092;51.924;21.448;2022-08-01T02:55:58;99886.19;;;14.56;100.00
45357;BME280;31092;51.924;21.448;2022-08-01T02:58:26;99888.00;;;14.49;100.00
45357;BME280;31092;51.924;21.448;2022-08-01T03:00:52;99886.81;;;14.52;100.00
45357;BME280;31092;51.924;21.448;2022-08-01T03:03:19;99907.50;;;14.59;100.00
45357;BME280;31092;51.924;21.448;2022-08-01T03:05:45;99885.69;;;14.46;100.00
45357;BME280;31092;51.924;21.448;2022-08-01T03:08:12;99902.03;;;14.53;100.00
45357;BME280;31092;51.924;21.448;2022-08-01T03:10:41;99904.72;;;14.53;100.00
45357;BME280;31092;51.924;21.448;2022-08-01T03:13:08;99829.00;;;14.10;100.00
45357;BME280;31092;51.924;21.448;2022-08-01T03:15:37;99883.78;;;14.40;100.00
45357;BME280;31092;51.924;21.448;2022-08-01T03:18:05;99895.69;;;14.46;100.00
45357;BME280;31092;51.924;21.448;2022-08-01T03:20:33;99900.16;;;14.53;100.00
45357;BME280;31092;51.924;21.448;2022-08-01T03:23:00;99894.28;;;14.50;100.00
45357;BME280;31092;51.924;21.448;2022-08-01T03:25:27;99902.84;;;14.53;100.00
45357;BME280;31092;51.924;21.448;2022-08-01T03:27:56;99845.09;;;14.18;100.00
45357;BME280;31092;51.924;21.448;2022-08-01T03:30:25;99813.50;;;13.97;100.00
45357;BME280;31092;51.924;21.448;2022-08-01T03:32:51;99902.66;;;14.55;100.00
45357;BME280;31092;51.924;21.448;2022-08-01T03:35:18;99909.38;;;14.59;100.00
45357;BME280;31092;51.924;21.448;2022-08-01T03:37:48;99907.88;;;14.56;100.00
45357;BME280;31092;51.924;21.448;2022-08-01T03:40:35;99856.75;;;14.19;100.00
45357;BME280;31092;51.924;21.448;2022-08-01T03:43:07;99925.41;;;14.60;100.00
45357;BME280;31092;51.924;21.448;2022-08-01T03:45:37;99848.63;;;14.19;100.00
45357;BME280;31092;51.924;21.448;2022-08-01T03:48:19;99916.63;;;14.58;100.00
45357;BME280;31092;51.924;21.448;2022-08-01T03:50:51;99907.63;;;14.51;100.00
45357;BME280;31092;51.924;21.448;2022-08-01T03:53:23;99852.00;;;14.21;100.00
45357;BME280;31092;51.924;21.448;2022-08-01T03:55:50;99913.09;;;14.58;100.00
45357;BME280;31092;51.924;21.448;2022-08-01T03:58:17;99910.81;;;14.61;100.00
45357;BME280;31092;51.924;21.448;2022-08-01T04:00:46;99918.78;;;14.63;100.00
45357;BME280;31092;51.924;21.448;2022-08-01T04:03:13;99867.69;;;14.32;100.00
45357;BME280;31092;51.924;21.448;2022-08-01T04:05:42;99926.72;;;14.71;100.00
45357;BME280;31092;51.924;21.448;2022-08-01T04:08:08;99853.91;;;14.27;100.00
45357;BME280;31092;51.924;21.448;2022-08-01T04:10:34;99921.66;;;14.61;100.00
45357;BME280;31092;51.924;21.448;2022-08-01T04:13:15;99935.66;;;14.65;100.00
45357;BME280;31092;51.924;21.448;2022-08-01T04:15:41;99933.38;;;14.69;100.00
45357;BME280;31092;51.924;21.448;2022-08-01T04:18:06;99926.03;;;14.56;100.00
45357;BME280;31092;51.924;21.448;2022-08-01T04:20:32;99909.25;;;14.46;100.00
45357;BME280;31092;51.924;21.448;2022-08-01T04:23:08;99938.75;;;14.62;100.00
45357;BME280;31092;51.924;21.448;2022-08-01T04:25:36;99933.09;;;14.57;100.00
45357;BME280;31092;51.924;21.448;2022-08-01T04:28:06;99932.50;;;14.61;100.00
45357;BME280;31092;51.924;21.448;2022-08-01T04:30:35;99936.72;;;14.71;100.00
45357;BME280;31092;51.924;21.448;2022-08-01T04:33:04;99873.72;;;14.27;100.00
45357;BME280;31092;51.924;21.448;2022-08-01T04:35:32;99926.69;;;14.65;100.00
45357;BME280;31092;51.924;21.448;2022-08-01T04:38:01;99910.63;;;14.63;100.00
45357;BME280;31092;51.924;21.448;2022-08-01T04:40:28;99870.66;;;14.44;100.00
45357;BME280;31092;51.924;21.448;2022-08-01T04:42:54;99922.19;;;14.78;100.00
45357;BME280;31092;51.924;21.448;2022-08-01T04:45:21;99935.81;;;14.92;100.00
45357;BME280;31092;51.924;21.448;2022-08-01T04:47:47;99876.22;;;14.64;100.00
45357;BME280;31092;51.924;21.448;2022-08-01T04:50:14;99873.69;;;14.62;100.00
45357;BME280;31092;51.924;21.448;2022-08-01T04:52:40;99890.88;;;14.69;100.00
45357;BME280;31092;51.924;21.448;2022-08-01T04:55:08;99899.84;;;14.70;100.00
45357;BME280;31092;51.924;21.448;2022-08-01T04:57:39;99955.88;;;15.04;100.00
45357;BME280;31092;51.924;21.448;2022-08-01T05:00:07;99955.00;;;14.97;100.00
45357;BME280;31092;51.924;21.448;2022-08-01T05:02:32;99968.59;;;15.03;100.00
45357;BME280;31092;51.924;21.448;2022-08-01T05:04:58;99948.53;;;14.91;100.00
45357;BME280;31092;51.924;21.448;2022-08-01T05:07:24;99971.31;;;15.03;100.00
45357;BME280;31092;51.924;21.448;2022-08-01T05:09:50;99964.63;;;14.99;100.00
45357;BME280;31092;51.924;21.448;2022-08-01T05:12:15;99968.41;;;15.05;100.00
45357;BME280;31092;51.924;21.448;2022-08-01T05:14:41;99894.50;;;14.55;100.00
45357;BME280;31092;51.924;21.448;2022-08-01T05:17:08;99955.19;;;14.89;100.00
45357;BME280;31092;51.924;21.448;2022-08-01T05:19:35;99837.56;;;14.13;100.00
45357;BME280;31092;51.924;21.448;2022-08-01T05:22:05;99974.63;;;14.99;100.00
45357;BME280;31092;51.924;21.448;2022-08-01T05:24:32;99910.56;;;14.50;100.00
45357;BME280;31092;51.924;21.448;2022-08-01T05:26:58;99985.22;;;14.94;100.00
45357;BME280;31092;51.924;21.448;2022-08-01T05:29:24;99988.38;;;14.91;100.00
45357;BME280;31092;51.924;21.448;2022-08-01T05:31:51;99977.72;;;14.89;100.00
45357;BME280;31092;51.924;21.448;2022-08-01T05:34:17;99971.00;;;14.85;100.00
45357;BME280;31092;51.924;21.448;2022-08-01T05:36:43;99962.06;;;14.84;100.00
45357;BME280;31092;51.924;21.448;2022-08-01T05:39:10;99909.38;;;14.59;100.00
45357;BME280;31092;51.924;21.448;2022-08-01T05:41:36;99981.72;;;15.00;100.00
45357;BME280;31092;51.924;21.448;2022-08-01T05:44:03;99986.56;;;15.11;100.00
45357;BME280;31092;51.924;21.448;2022-08-01T05:46:28;99918.59;;;14.71;100.00
45357;BME280;31092;51.924;21.448;2022-08-01T05:48:59;99986.56;;;15.11;100.00
45357;BME280;31092;51.924;21.448;2022-08-01T05:51:25;99981.56;;;15.08;100.00
45357;BME280;31092;51.924;21.448;2022-08-01T05:53:51;99978.69;;;15.16;100.00
45357;BME280;31092;51.924;21.448;2022-08-01T05:56:17;99968.06;;;15.21;100.00
45357;BME280;31092;51.924;21.448;2022-08-01T05:58:43;99981.72;;;15.41;100.00
45357;BME280;31092;51.924;21.448;2022-08-01T06:01:09;99930.69;;;15.17;100.00
45357;BME280;31092;51.924;21.448;2022-08-01T06:03:35;99986.75;;;15.57;100.00
45357;BME280;31092;51.924;21.448;2022-08-01T06:06:01;99980.47;;;15.57;100.00
45357;BME280;31092;51.924;21.448;2022-08-01T06:08:27;99986.13;;;15.55;100.00
45357;BME280;31092;51.924;21.448;2022-08-01T06:10:53;99917.31;;;15.15;100.00
45357;BME280;31092;51.924;21.448;2022-08-01T06:13:22;99981.28;;;15.51;100.00
45357;BME280;31092;51.924;21.448;2022-08-01T06:15:47;99987.16;;;15.54;100.00
45357;BME280;31092;51.924;21.448;2022-08-01T06:18:16;99989.66;;;15.49;100.00
45357;BME280;31092;51.924;21.448;2022-08-01T06:20:42;99924.81;;;15.06;100.00
45357;BME280;31092;51.924;21.448;2022-08-01T06:23:08;99932.53;;;15.09;100.00
45357;BME280;31092;51.924;21.448;2022-08-01T06:25:34;99982.72;;;15.40;100.00
45357;BME280;31092;51.924;21.448;2022-08-01T06:28:00;99971.22;;;15.31;100.00
45357;BME280;31092;51.924;21.448;2022-08-01T06:30:26;99978.16;;;15.47;100.00
45357;BME280;31092;51.924;21.448;2022-08-01T06:32:55;99965.63;;;15.46;100.00
45357;BME280;31092;51.924;21.448;2022-08-01T06:35:24;99975.53;;;15.67;100.00
45357;BME280;31092;51.924;21.448;2022-08-01T06:37:49;99912.00;;;15.62;100.00
45357;BME280;31092;51.924;21.448;2022-08-01T06:40:15;99967.44;;;16.14;100.00
45357;BME280;31092;51.924;21.448;2022-08-01T06:42:40;99978.31;;;16.40;100.00
45357;BME280;31092;51.924;21.448;2022-08-01T06:45:08;99979.94;;;16.68;100.00
45357;BME280;31092;51.924;21.448;2022-08-01T06:47:35;99905.13;;;16.45;100.00
45357;BME280;31092;51.924;21.448;2022-08-01T06:50:01;99983.19;;;17.16;100.00
45357;BME280;31092;51.924;21.448;2022-08-01T06:52:27;99961.81;;;17.20;100.00
45357;BME280;31092;51.924;21.448;2022-08-01T06:54:53;99969.16;;;17.19;100.00
45357;BME280;31092;51.924;21.448;2022-08-01T06:57:18;99967.38;;;17.38;100.00
45357;BME280;31092;51.924;21.448;2022-08-01T06:59:44;99964.81;;;17.50;100.00
45357;BME280;31092;51.924;21.448;2022-08-01T07:02:09;99945.97;;;17.48;100.00
45357;BME280;31092;51.924;21.448;2022-08-01T07:04:35;99951.16;;;17.57;100.00
45357;BME280;31092;51.924;21.448;2022-08-01T07:07:01;99890.56;;;17.36;100.00
45357;BME280;31092;51.924;21.448;2022-08-01T07:09:28;99942.19;;;17.88;100.00
45357;BME280;31092;51.924;21.448;2022-08-01T07:11:54;99948.63;;;18.00;100.00
45357;BME280;31092;51.924;21.448;2022-08-01T07:14:22;99964.41;;;18.16;100.00
45357;BME280;31092;51.924;21.448;2022-08-01T07:16:48;99961.13;;;18.33;100.00
45357;BME280;31092;51.924;21.448;2022-08-01T07:19:14;99939.91;;;18.35;100.00
45357;BME280;31092;51.924;21.448;2022-08-01T07:21:40;99953.28;;;18.43;100.00
45357;BME280;31092;51.924;21.448;2022-08-01T07:24:09;99945.69;;;18.45;100.00
45357;BME280;31092;51.924;21.448;2022-08-01T07:26:38;99948.13;;;18.53;100.00
45357;BME280;31092;51.924;21.448;2022-08-01T07:29:04;99949.50;;;18.62;100.00
45357;BME280;31092;51.924;21.448;2022-08-01T07:31:29;99959.63;;;18.80;100.00
45357;BME280;31092;51.924;21.448;2022-08-01T07:33:55;99959.41;;;18.82;100.00
45357;BME280;31092;51.924;21.448;2022-08-01T07:36:21;99947.34;;;18.71;100.00
45357;BME280;31092;51.924;21.448;2022-08-01T07:39:19;99959.25;;;18.95;100.00
45357;BME280;31092;51.924;21.448;2022-08-01T07:41:44;99956.50;;;19.13;100.00
45357;BME280;31092;51.924;21.448;2022-08-01T07:44:10;99957.19;;;19.27;100.00
45357;BME280;31092;51.924;21.448;2022-08-01T07:46:38;99958.00;;;19.28;100.00
45357;BME280;31092;51.924;21.448;2022-08-01T07:49:04;99929.97;;;19.21;100.00
45357;BME280;31092;51.924;21.448;2022-08-01T07:51:30;99951.44;;;19.35;100.00
45357;BME280;31092;51.924;21.448;2022-08-01T07:54:03;99939.00;;;19.51;100.00
45357;BME280;31092;51.924;21.448;2022-08-01T07:56:29;99946.59;;;19.68;100.00
45357;BME280;31092;51.924;21.448;2022-08-01T07:58:54;99883.25;;;19.29;100.00
45357;BME280;31092;51.924;21.448;2022-08-01T08:01:20;99945.97;;;19.66;100.00
45357;BME280;31092;51.924;21.448;2022-08-01T08:03:46;99879.84;;;19.45;100.00
45357;BME280;31092;51.924;21.448;2022-08-01T08:06:11;99933.53;;;19.81;100.00
45357;BME280;31092;51.924;21.448;2022-08-01T08:08:40;99934.78;;;20.09;100.00
45357;BME280;31092;51.924;21.448;2022-08-01T08:11:08;99932.44;;;20.24;100.00
45357;BME280;31092;51.924;21.448;2022-08-01T08:13:34;99929.22;;;20.27;100.00
45357;BME280;31092;51.924;21.448;2022-08-01T08:16:00;99932.66;;;20.34;100.00
45357;BME280;31092;51.924;21.448;2022-08-01T08:18:25;99943.75;;;20.51;100.00
45357;BME280;31092;51.924;21.448;2022-08-01T08:20:51;99876.06;;;20.23;100.00
45357;BME280;31092;51.924;21.448;2022-08-01T08:23:17;99905.09;;;20.36;100.00
45357;BME280;31092;51.924;21.448;2022-08-01T08:26:13;99943.41;;;20.60;100.00
45357;BME280;31092;51.924;21.448;2022-08-01T08:28:51;99945.16;;;20.89;100.00
45357;BME280;31092;51.924;21.448;2022-08-01T08:31:17;99945.13;;;21.01;100.00
45357;BME280;31092;51.924;21.448;2022-08-01T08:33:48;99948.81;;;21.07;100.00
45357;BME280;31092;51.924;21.448;2022-08-01T08:36:14;99949.22;;;20.87;100.00
45357;BME280;31092;51.924;21.448;2022-08-01T08:38:40;99947.78;;;20.96;100.00
45357;BME280;31092;51.924;21.448;2022-08-01T08:41:05;99892.69;;;20.80;100.00
45357;BME280;31092;51.924;21.448;2022-08-01T08:43:31;99899.69;;;20.88;100.00
45357;BME280;31092;51.924;21.448;2022-08-01T08:45:57;99906.03;;;20.77;100.00
45357;BME280;31092;51.924;21.448;2022-08-01T08:48:23;99957.03;;;21.07;100.00
45357;BME280;31092;51.924;21.448;2022-08-01T08:50:50;99964.66;;;21.04;100.00
45357;BME280;31092;51.924;21.448;2022-08-01T08:53:16;99959.41;;;21.15;100.00
45357;BME280;31092;51.924;21.448;2022-08-01T08:55:44;99910.38;;;21.01;100.00
45357;BME280;31092;51.924;21.448;2022-08-01T08:58:13;99952.69;;;21.34;100.00
45357;BME280;31092;51.924;21.448;2022-08-01T09:00:40;99954.81;;;21.44;100.00
45357;BME280;31092;51.924;21.448;2022-08-01T09:03:06;99949.59;;;21.42;100.00
45357;BME280;31092;51.924;21.448;2022-08-01T09:05:32;99928.97;;;21.40;100.00
45357;BME280;31092;51.924;21.448;2022-08-01T09:07:57;99954.44;;;21.69;100.00
45357;BME280;31092;51.924;21.448;2022-08-01T09:10:23;99894.44;;;21.39;100.00
45357;BME280;31092;51.924;21.448;2022-08-01T09:13:10;99907.78;;;21.64;100.00
45357;BME280;31092;51.924;21.448;2022-08-01T09:15:45;99922.97;;;21.71;100.00
45357;BME280;31092;51.924;21.448;2022-08-01T09:18:31;99969.00;;;22.15;100.00
45357;BME280;31092;51.924;21.448;2022-08-01T09:21:18;99965.66;;;22.13;100.00
45357;BME280;31092;51.924;21.448;2022-08-01T09:23:50;99914.91;;;21.65;100.00
45357;BME280;31092;51.924;21.448;2022-08-01T09:26:35;99954.25;;;22.04;100.00
45357;BME280;31092;51.924;21.448;2022-08-01T09:29:03;99966.09;;;22.21;100.00
45357;BME280;31092;51.924;21.448;2022-08-01T09:31:39;99960.47;;;22.28;100.00
45357;BME280;31092;51.924;21.448;2022-08-01T09:34:05;99962.44;;;22.33;100.00
45357;BME280;31092;51.924;21.448;2022-08-01T09:36:51;99972.09;;;22.35;100.00
45357;BME280;31092;51.924;21.448;2022-08-01T09:39:19;99961.84;;;22.47;100.00
45357;BME280;31092;51.924;21.448;2022-08-01T09:41:47;99914.63;;;22.12;100.00
45357;BME280;31092;51.924;21.448;2022-08-01T09:44:13;99969.84;;;22.49;100.00
45357;BME280;31092;51.924;21.448;2022-08-01T09:46:53;99983.41;;;22.56;100.00
45357;BME280;31092;51.924;21.448;2022-08-01T09:49:28;99974.22;;;22.67;100.00
45357;BME280;31092;51.924;21.448;2022-08-01T09:51:54;99971.50;;;22.67;100.00
45357;BME280;31092;51.924;21.448;2022-08-01T09:54:32;99974.28;;;22.72;100.00
45357;BME280;31092;51.924;21.448;2022-08-01T09:59:40;99965.38;;;22.99;100.00
45357;BME280;31092;51.924;21.448;2022-08-01T10:02:08;99909.22;;;22.73;100.00
45357;BME280;31092;51.924;21.448;2022-08-01T10:04:35;99916.50;;;22.84;100.00
45357;BME280;31092;51.924;21.448;2022-08-01T10:07:06;99952.84;;;23.08;100.00
45357;BME280;31092;51.924;21.448;2022-08-01T10:09:35;99954.13;;;23.00;100.00
45357;BME280;31092;51.924;21.448;2022-08-01T10:12:01;99947.44;;;23.13;100.00
45357;BME280;31092;51.924;21.448;2022-08-01T10:14:28;99958.13;;;23.36;100.00
45357;BME280;31092;51.924;21.448;2022-08-01T10:16:56;99958.13;;;23.36;100.00
45357;BME280;31092;51.924;21.448;2022-08-01T10:19:26;99957.16;;;23.48;100.00
45357;BME280;31092;51.924;21.448;2022-08-01T10:21:52;99865.38;;;22.78;100.00
45357;BME280;31092;51.924;21.448;2022-08-01T10:24:23;99901.63;;;22.97;100.00
45357;BME280;31092;51.924;21.448;2022-08-01T10:26:51;99975.34;;;23.49;100.00
45357;BME280;31092;51.924;21.448;2022-08-01T10:29:19;99920.91;;;23.24;100.00
45357;BME280;31092;51.924;21.448;2022-08-01T10:31:46;99899.03;;;23.12;100.00
45357;BME280;31092;51.924;21.448;2022-08-01T10:34:13;99953.78;;;23.40;100.00
45357;BME280;31092;51.924;21.448;2022-08-01T10:36:47;99963.72;;;23.41;100.00
45357;BME280;31092;51.924;21.448;2022-08-01T10:39:13;99903.84;;;23.22;100.00
45357;BME280;31092;51.924;21.448;2022-08-01T10:41:40;99902.19;;;23.48;100.00
45357;BME280;31092;51.924;21.448;2022-08-01T10:44:08;99914.72;;;23.65;100.00
45357;BME280;31092;51.924;21.448;2022-08-01T10:46:38;99898.84;;;23.68;100.00
45357;BME280;31092;51.924;21.448;2022-08-01T10:49:07;99958.06;;;24.07;100.00
45357;BME280;31092;51.924;21.448;2022-08-01T10:51:37;99940.53;;;23.86;100.00
45357;BME280;31092;51.924;21.448;2022-08-01T10:54:09;99964.78;;;23.89;100.00
45357;BME280;31092;51.924;21.448;2022-08-01T10:56:43;99961.78;;;23.91;100.00
45357;BME280;31092;51.924;21.448;2022-08-01T10:59:09;99940.94;;;24.00;100.00
45357;BME280;31092;51.924;21.448;2022-08-01T11:01:39;99916.47;;;23.99;100.00
45357;BME280;31092;51.924;21.448;2022-08-01T11:04:10;99913.88;;;23.87;100.00
45357;BME280;31092;51.924;21.448;2022-08-01T11:09:28;99966.97;;;23.87;100.00
45357;BME280;31092;51.924;21.448;2022-08-01T11:12:04;99958.38;;;24.11;100.00
45357;BME280;31092;51.924;21.448;2022-08-01T11:14:33;99898.19;;;23.60;100.00
45357;BME280;31092;51.924;21.448;2022-08-01T11:17:34;99956.34;;;24.01;100.00
45357;BME280;31092;51.924;21.448;2022-08-01T11:20:21;99957.31;;;24.12;100.00
45357;BME280;31092;51.924;21.448;2022-08-01T11:31:24;99903.75;;;23.93;100.00
45357;BME280;31092;51.924;21.448;2022-08-01T11:38:39;99944.19;;;24.61;100.00
45357;BME280;31092;51.924;21.448;2022-08-01T11:41:13;99945.41;;;24.81;100.00
45357;BME280;31092;51.924;21.448;2022-08-01T11:47:02;99958.00;;;24.67;100.00
45357;BME280;31092;51.924;21.448;2022-08-01T11:52:15;99956.63;;;24.32;100.00
45357;BME280;31092;51.924;21.448;2022-08-01T11:54:49;99961.78;;;24.23;100.00
45357;BME280;31092;51.924;21.448;2022-08-01T11:57:20;99953.66;;;24.38;100.00
45357;BME280;31092;51.924;21.448;2022-08-01T11:59:53;99959.25;;;24.49;100.00
45357;BME280;31092;51.924;21.448;2022-08-01T12:02:27;99951.03;;;24.54;100.00
45357;BME280;31092;51.924;21.448;2022-08-01T12:04:59;99909.41;;;24.45;100.00
45357;BME280;31092;51.924;21.448;2022-08-01T12:07:26;99927.94;;;24.60;100.00
45357;BME280;31092;51.924;21.448;2022-08-01T12:12:22;99908.66;;;24.55;100.00
45357;BME280;31092;51.924;21.448;2022-08-01T12:14:56;99943.22;;;24.83;100.00
45357;BME280;31092;51.924;21.448;2022-08-01T12:17:33;99952.84;;;24.80;100.00
45357;BME280;31092;51.924;21.448;2022-08-01T12:20:00;99891.53;;;24.48;100.00
45357;BME280;31092;51.924;21.448;2022-08-01T12:22:25;99925.75;;;24.62;100.00
45357;BME280;31092;51.924;21.448;2022-08-01T12:24:51;99898.81;;;24.32;98.53
45357;BME280;31092;51.924;21.448;2022-08-01T12:27:28;99941.13;;;24.58;95.10
45357;BME280;31092;51.924;21.448;2022-08-01T12:29:54;99942.31;;;24.72;98.98
45357;BME280;31092;51.924;21.448;2022-08-01T12:32:28;99905.38;;;24.63;99.01
45357;BME280;31092;51.924;21.448;2022-08-01T12:34:58;99941.59;;;24.87;99.84
45357;BME280;31092;51.924;21.448;2022-08-01T12:37:25;99906.38;;;24.47;99.45
45357;BME280;31092;51.924;21.448;2022-08-01T12:39:51;99928.69;;;24.45;100.00
45357;BME280;31092;51.924;21.448;2022-08-01T12:42:17;99867.25;;;24.02;100.00
45357;BME280;31092;51.924;21.448;2022-08-01T12:44:45;99885.25;;;24.20;100.00
45357;BME280;31092;51.924;21.448;2022-08-01T12:47:11;99920.97;;;24.47;100.00
45357;BME280;31092;51.924;21.448;2022-08-01T12:49:38;99892.72;;;24.25;100.00
45357;BME280;31092;51.924;21.448;2022-08-01T12:52:06;99862.38;;;24.14;100.00
45357;BME280;31092;51.924;21.448;2022-08-01T12:55:05;99934.34;;;24.76;100.00
45357;BME280;31092;51.924;21.448;2022-08-01T12:57:31;99922.22;;;24.72;100.00
45357;BME280;31092;51.924;21.448;2022-08-01T13:02:46;99929.94;;;24.75;100.00
45357;BME280;31092;51.924;21.448;2022-08-01T13:05:12;99893.31;;;24.69;100.00
45357;BME280;31092;51.924;21.448;2022-08-01T13:07:49;99918.81;;;25.07;100.00
45357;BME280;31092;51.924;21.448;2022-08-01T13:10:25;99917.69;;;25.08;100.00
45357;BME280;31092;51.924;21.448;2022-08-01T13:12:52;99880.16;;;24.87;100.00
45357;BME280;31092;51.924;21.448;2022-08-01T13:15:24;99884.63;;;25.03;100.00
45357;BME280;31092;51.924;21.448;2022-08-01T13:17:54;99866.16;;;25.03;100.00
45357;BME280;31092;51.924;21.448;2022-08-01T13:20:28;99929.66;;;25.29;100.00
45357;BME280;31092;51.924;21.448;2022-08-01T13:22:55;99910.78;;;25.00;100.00
45357;BME280;31092;51.924;21.448;2022-08-01T13:25:21;99913.00;;;25.03;100.00
45357;BME280;31092;51.924;21.448;2022-08-01T13:27:46;99905.56;;;25.04;100.00
45357;BME280;31092;51.924;21.448;2022-08-01T13:30:19;99882.13;;;24.91;100.00
45357;BME280;31092;51.924;21.448;2022-08-01T13:33:05;99925.22;;;25.13;100.00